LUX weather

Luxembourg-Findel International Airport
Luxembourg, Luxembourg, Luxembourg

Public forecast

Using degrees Celsius for public forecast. Weather courtesy of forecast.io.

Current aviation weather report (METAR) for Luxembourg-Findel International Airport

Retrieved 2019/12/16 02:20 UTC (0 seconds ago):

ELLX 160220Z AUTO 16005KT 120V190 0200 R24/0600V0750N // VV000 07/07 Q1008 NOSIG

Aviation forecast (TAF) for Luxembourg-Findel International Airport

Retrieved 2019-12-16 00:39 UTC (2 hours ago):

TAF ELLX 160000Z 1600/1706 18006KT 6000 FEW001 BKN006 TEMPO 1600/1606 1500 -RA -DZ BKN003 TEMPO 1600/1606 0800 FG BKN000 TEMPO 1606/1610 3000 -RA -DZ BKN003 BECMG 1610/1612 SCT010